createdAt,value
2022-09-23T00:00:01.617Z,0.00
2022-09-23T00:01:01.833Z,0.00
2022-09-23T00:02:01.938Z,0.00
2022-09-23T00:03:02.113Z,0.00
2022-09-23T00:04:02.217Z,0.00
2022-09-23T00:05:02.345Z,0.00
2022-09-23T00:06:02.483Z,0.00
2022-09-23T00:07:02.631Z,0.00
2022-09-23T00:08:02.757Z,0.00
2022-09-23T00:09:02.937Z,0.00
2022-09-23T00:10:02.983Z,0.00
2022-09-23T00:11:03.143Z,0.00
2022-09-23T00:12:06.927Z,0.00
2022-09-23T00:13:04.435Z,0.00
2022-09-23T00:14:03.555Z,0.00
2022-09-23T00:15:03.673Z,0.00
2022-09-23T00:16:03.786Z,0.00
2022-09-23T00:17:03.952Z,0.00
2022-09-23T00:18:04.014Z,0.00
2022-09-23T00:19:04.168Z,0.00
2022-09-23T00:20:04.292Z,0.00
2022-09-23T00:21:04.412Z,0.00
2022-09-23T00:22:04.562Z,0.00
2022-09-23T00:23:04.696Z,0.00
2022-09-23T00:24:04.890Z,0.00
2022-09-23T00:25:04.972Z,0.00
2022-09-23T00:26:05.083Z,0.00
2022-09-23T00:27:05.215Z,0.00
2022-09-23T00:28:05.313Z,0.00
2022-09-23T00:29:05.453Z,0.00
2022-09-23T00:30:05.594Z,0.00
2022-09-23T00:31:05.801Z,0.00
2022-09-23T00:32:05.884Z,0.00
2022-09-23T00:33:06.008Z,0.00
2022-09-23T00:34:06.203Z,0.00
2022-09-23T00:35:06.291Z,0.00
2022-09-23T00:36:06.422Z,0.00
2022-09-23T00:37:06.573Z,0.00
2022-09-23T00:38:06.713Z,0.00
2022-09-23T00:39:06.968Z,0.00
2022-09-23T00:40:06.973Z,0.00
2022-09-23T00:41:07.053Z,0.00
2022-09-23T00:42:07.203Z,0.00
2022-09-23T00:43:07.324Z,0.00
2022-09-23T00:44:07.460Z,0.00
2022-09-23T00:45:07.599Z,0.00
2022-09-23T00:46:08.082Z,0.00
2022-09-23T00:47:07.841Z,0.00
2022-09-23T00:48:07.948Z,0.00
2022-09-23T00:49:08.807Z,0.00
2022-09-23T00:50:08.221Z,0.00
2022-09-23T00:51:08.369Z,0.00
2022-09-23T00:52:08.468Z,0.00
2022-09-23T00:53:08.620Z,0.00
2022-09-23T00:54:08.789Z,0.00
2022-09-23T00:55:08.909Z,0.00
2022-09-23T00:56:09.029Z,0.00
2022-09-23T00:57:09.168Z,0.00
2022-09-23T00:58:09.310Z,0.00
2022-09-23T00:59:09.471Z,0.00
2022-09-23T01:00:09.585Z,0.00
2022-09-23T01:01:09.767Z,0.00
2022-09-23T01:02:09.936Z,0.00
2022-09-23T01:03:09.990Z,0.00
2022-09-23T01:04:10.141Z,0.00
2022-09-23T01:05:10.280Z,0.00
2022-09-23T01:06:10.426Z,0.00
2022-09-23T01:07:10.552Z,0.00
2022-09-23T01:08:10.660Z,0.00
2022-09-23T01:09:10.877Z,0.00
2022-09-23T01:10:10.899Z,0.00
2022-09-23T01:11:11.027Z,0.00
2022-09-23T01:12:11.159Z,0.00
2022-09-23T01:13:11.308Z,0.00
2022-09-23T01:14:11.442Z,0.00
2022-09-23T01:15:11.588Z,0.00
2022-09-23T01:16:11.751Z,0.00
2022-09-23T01:17:11.875Z,0.00
2022-09-23T01:18:11.988Z,0.00
2022-09-23T01:19:12.116Z,0.00
2022-09-23T01:20:12.267Z,0.00
2022-09-23T01:21:13.844Z,0.00
2022-09-23T01:22:12.556Z,0.00
2022-09-23T01:23:12.688Z,0.00
2022-09-23T01:24:12.845Z,0.00
2022-09-23T01:25:12.998Z,0.00
2022-09-23T01:26:13.088Z,0.00
2022-09-23T01:27:13.204Z,0.00
2022-09-23T01:28:13.330Z,0.00
2022-09-23T01:29:13.465Z,0.00
2022-09-23T01:30:13.546Z,0.00
2022-09-23T01:31:13.703Z,0.00
2022-09-23T01:32:13.837Z,0.00
2022-09-23T01:33:13.966Z,0.00
2022-09-23T01:34:14.093Z,0.00
2022-09-23T01:35:14.213Z,0.00
2022-09-23T01:36:14.338Z,0.00
2022-09-23T01:37:14.486Z,0.00
2022-09-23T01:38:14.625Z,0.00
2022-09-23T01:39:14.756Z,0.00
2022-09-23T01:40:14.884Z,0.00
2022-09-23T01:41:15.044Z,0.00
2022-09-23T01:42:16.634Z,0.00
2022-09-23T01:43:15.366Z,0.00
2022-09-23T01:44:15.445Z,0.00
2022-09-23T01:45:15.543Z,0.00
2022-09-23T01:46:15.786Z,0.00
2022-09-23T01:47:15.773Z,0.00
2022-09-23T01:48:15.923Z,0.00
2022-09-23T01:49:16.057Z,0.00
2022-09-23T01:50:16.170Z,0.00
2022-09-23T01:51:16.303Z,0.00
2022-09-23T01:52:16.423Z,0.00
2022-09-23T01:53:16.552Z,0.00
2022-09-23T01:54:16.711Z,0.00
2022-09-23T01:55:16.832Z,0.00
2022-09-23T01:56:16.970Z,0.00
2022-09-23T01:57:17.111Z,0.00
2022-09-23T01:58:17.233Z,0.00
2022-09-23T01:59:17.360Z,0.00
2022-09-23T02:00:17.471Z,0.00
2022-09-23T02:01:17.648Z,0.00
2022-09-23T02:02:17.742Z,0.00
2022-09-23T02:03:17.832Z,0.00
2022-09-23T02:04:17.992Z,0.00
2022-09-23T02:05:18.119Z,0.00
2022-09-23T02:06:18.246Z,0.00
2022-09-23T02:07:18.503Z,0.00
2022-09-23T02:08:18.520Z,0.00
2022-09-23T02:09:18.639Z,0.00
2022-09-23T02:10:18.762Z,0.00
2022-09-23T02:11:18.890Z,0.00
2022-09-23T02:12:19.014Z,0.00
2022-09-23T02:13:19.140Z,0.00
2022-09-23T02:14:19.261Z,0.00
2022-09-23T02:15:19.382Z,0.00
2022-09-23T02:16:19.526Z,0.00
2022-09-23T02:17:19.681Z,0.00
2022-09-23T02:18:19.819Z,0.00
2022-09-23T02:19:19.930Z,0.00
2022-09-23T02:20:20.061Z,0.00
2022-09-23T02:21:20.229Z,0.00
2022-09-23T02:22:20.291Z,0.00
2022-09-23T02:23:20.617Z,0.00
2022-09-23T02:24:20.570Z,0.00
2022-09-23T02:25:20.689Z,0.00
2022-09-23T02:26:20.801Z,0.00
2022-09-23T02:27:20.969Z,0.00
2022-09-23T02:28:21.033Z,0.00
2022-09-23T02:29:21.153Z,0.00
2022-09-23T02:30:21.281Z,0.00
2022-09-23T02:31:21.461Z,0.00
2022-09-23T02:32:21.639Z,0.00
2022-09-23T02:33:21.673Z,0.00
2022-09-23T02:34:21.779Z,0.00
2022-09-23T02:35:21.899Z,0.00
2022-09-23T02:36:22.088Z,0.00
2022-09-23T02:37:22.200Z,0.00
2022-09-23T02:38:22.298Z,0.00
2022-09-23T02:39:22.439Z,0.00
2022-09-23T02:40:22.646Z,0.00
2022-09-23T02:41:22.708Z,0.00
2022-09-23T02:42:22.844Z,0.00
2022-09-23T02:43:22.959Z,0.00
2022-09-23T02:44:23.068Z,0.00
2022-09-23T02:45:23.200Z,0.00
2022-09-23T02:46:23.365Z,0.00
2022-09-23T02:47:23.507Z,0.00
2022-09-23T02:48:23.637Z,0.00
2022-09-23T02:49:23.760Z,0.00
2022-09-23T02:50:23.876Z,0.00
2022-09-23T02:51:23.996Z,0.00
2022-09-23T02:52:24.118Z,0.00
2022-09-23T02:53:24.271Z,0.00
2022-09-23T02:54:24.386Z,0.00
2022-09-23T02:55:24.505Z,0.00
2022-09-23T02:56:24.626Z,0.00
2022-09-23T02:57:24.754Z,0.00
2022-09-23T02:58:24.886Z,0.00
2022-09-23T02:59:25.037Z,0.00
2022-09-23T03:00:26.625Z,0.00
2022-09-23T03:01:25.353Z,0.00
2022-09-23T03:02:25.552Z,0.00
2022-09-23T03:03:25.599Z,0.00
2022-09-23T03:04:25.757Z,0.00
2022-09-23T03:05:25.877Z,0.00
2022-09-23T03:06:25.995Z,0.00
2022-09-23T03:07:26.118Z,0.00
2022-09-23T03:08:26.255Z,0.00
2022-09-23T03:09:26.393Z,0.00
2022-09-23T03:10:26.523Z,0.00
2022-09-23T03:11:26.636Z,0.00
2022-09-23T03:12:26.753Z,0.00
2022-09-23T03:13:29.392Z,0.00
2022-09-23T03:14:27.043Z,0.00
2022-09-23T03:15:27.184Z,0.00
2022-09-23T03:16:27.357Z,0.00
2022-09-23T03:17:27.414Z,0.00
2022-09-23T03:18:27.536Z,0.00
2022-09-23T03:19:27.664Z,0.00
2022-09-23T03:20:27.795Z,0.00
2022-09-23T03:21:27.902Z,0.00
2022-09-23T03:22:28.047Z,0.00
2022-09-23T03:23:28.184Z,0.00
2022-09-23T03:24:28.303Z,0.00
2022-09-23T03:25:28.432Z,0.00
2022-09-23T03:26:28.553Z,0.00
2022-09-23T03:27:28.672Z,0.00
2022-09-23T03:28:28.796Z,0.00
2022-09-23T03:29:28.924Z,0.00
2022-09-23T03:30:29.071Z,0.00
2022-09-23T03:31:29.196Z,0.00
2022-09-23T03:32:29.312Z,0.00
2022-09-23T03:33:29.426Z,0.00
2022-09-23T03:34:29.631Z,0.00
2022-09-23T03:35:29.652Z,0.00
2022-09-23T03:36:29.773Z,0.00
2022-09-23T03:37:29.901Z,0.00
2022-09-23T03:38:30.026Z,0.00
2022-09-23T03:39:30.152Z,0.00
2022-09-23T03:40:30.351Z,0.00
2022-09-23T03:41:30.414Z,0.00
2022-09-23T03:42:30.537Z,0.00
2022-09-23T03:43:30.652Z,0.00
2022-09-23T03:44:30.802Z,0.00
2022-09-23T03:45:31.021Z,0.00
2022-09-23T03:46:31.088Z,0.00
2022-09-23T03:47:31.203Z,0.00
2022-09-23T03:48:31.335Z,0.00
2022-09-23T03:49:31.482Z,0.00
2022-09-23T03:50:31.610Z,0.00
2022-09-23T03:51:31.729Z,0.00
2022-09-23T03:52:31.851Z,0.00
2022-09-23T03:53:31.972Z,0.00
2022-09-23T03:54:32.089Z,0.00
2022-09-23T03:55:32.204Z,0.00
2022-09-23T03:56:32.321Z,0.00
2022-09-23T03:57:32.452Z,0.00
2022-09-23T03:58:32.590Z,0.00
2022-09-23T03:59:32.670Z,0.00
2022-09-23T04:00:32.858Z,0.00
2022-09-23T04:01:32.900Z,0.00
2022-09-23T04:02:33.079Z,0.00
2022-09-23T04:03:33.201Z,0.00
2022-09-23T04:04:33.351Z,0.00
2022-09-23T04:05:33.470Z,0.00
2022-09-23T04:06:33.590Z,0.00
2022-09-23T04:07:33.708Z,0.00
2022-09-23T04:08:33.842Z,0.00
2022-09-23T04:09:33.946Z,0.00
2022-09-23T04:10:34.080Z,0.00
2022-09-23T04:11:34.200Z,0.00
2022-09-23T04:12:34.327Z,0.00
2022-09-23T04:13:34.478Z,0.00
2022-09-23T04:14:34.616Z,0.00
2022-09-23T04:15:34.774Z,0.00
2022-09-23T04:16:34.951Z,0.00
2022-09-23T04:17:35.056Z,0.00
2022-09-23T04:18:36.651Z,0.00
2022-09-23T04:19:35.309Z,0.00
2022-09-23T04:20:35.456Z,0.00
2022-09-23T04:21:35.564Z,0.00
2022-09-23T04:22:35.697Z,0.00
2022-09-23T04:23:35.821Z,0.00
2022-09-23T04:24:35.946Z,0.00
2022-09-23T04:25:36.096Z,0.00
2022-09-23T04:26:36.226Z,0.00
2022-09-23T04:27:37.896Z,0.00
2022-09-23T04:28:36.536Z,0.00
2022-09-23T04:29:36.668Z,0.00
2022-09-23T04:30:36.798Z,0.00
2022-09-23T04:31:37.027Z,0.00
2022-09-23T04:32:37.091Z,0.00
2022-09-23T04:33:37.207Z,0.00
2022-09-23T04:34:37.354Z,0.00
2022-09-23T04:35:40.186Z,0.00
2022-09-23T04:36:37.655Z,0.00
2022-09-23T04:37:37.775Z,0.00
2022-09-23T04:38:37.898Z,0.00
2022-09-23T04:39:38.025Z,0.00
2022-09-23T04:40:38.282Z,0.00
2022-09-23T04:41:38.307Z,0.00
2022-09-23T04:42:38.435Z,0.00
2022-09-23T04:43:38.557Z,0.00
2022-09-23T04:44:38.703Z,0.00
2022-09-23T04:45:38.844Z,0.00
2022-09-23T04:46:39.071Z,0.00
2022-09-23T04:47:39.094Z,0.00
2022-09-23T04:48:39.223Z,4.00
2022-09-23T04:49:39.336Z,4.00
2022-09-23T04:50:39.470Z,0.00
2022-09-23T04:51:39.622Z,0.00
2022-09-23T04:52:39.744Z,4.00
2022-09-23T04:53:39.879Z,4.00
2022-09-23T04:54:39.992Z,4.00
2022-09-23T04:55:40.102Z,4.00
2022-09-23T04:56:40.253Z,4.00
2022-09-23T04:57:40.340Z,8.00
2022-09-23T04:58:40.464Z,8.00
2022-09-23T04:59:40.583Z,8.00
2022-09-23T05:00:40.757Z,12.00
2022-09-23T05:01:41.025Z,16.00
2022-09-23T05:02:40.940Z,16.00
2022-09-23T05:03:41.074Z,20.00
2022-09-23T05:04:41.201Z,20.00
2022-09-23T05:05:41.322Z,28.00
2022-09-23T05:06:41.451Z,32.00
2022-09-23T05:07:41.592Z,36.00
2022-09-23T05:08:41.727Z,44.00
2022-09-23T05:09:41.842Z,48.00
2022-09-23T05:10:41.969Z,56.00
2022-09-23T05:11:42.113Z,68.00
2022-09-23T05:12:42.263Z,76.00
2022-09-23T05:13:42.403Z,88.00
2022-09-23T05:14:42.529Z,96.00
2022-09-23T05:15:42.653Z,108.00
2022-09-23T05:16:42.916Z,120.00
2022-09-23T05:17:42.902Z,132.00
2022-09-23T05:18:43.049Z,140.00
2022-09-23T05:19:43.180Z,152.00
2022-09-23T05:20:43.330Z,164.00
2022-09-23T05:21:43.470Z,180.00
2022-09-23T05:22:43.622Z,196.00
2022-09-23T05:23:43.749Z,212.00
2022-09-23T05:24:43.882Z,232.00
2022-09-23T05:25:44.060Z,256.00
2022-09-23T05:26:44.149Z,280.00
2022-09-23T05:27:44.271Z,304.00
2022-09-23T05:28:44.418Z,328.00
2022-09-23T05:29:44.559Z,356.00
2022-09-23T05:30:44.725Z,388.00
2022-09-23T05:31:44.895Z,420.00
2022-09-23T05:32:44.983Z,448.00
2022-09-23T05:33:45.069Z,480.00
2022-09-23T05:34:45.208Z,512.00
2022-09-23T05:35:45.366Z,544.00
2022-09-23T05:36:45.499Z,580.00
2022-09-23T05:37:45.648Z,612.00
2022-09-23T05:38:45.800Z,648.00
2022-09-23T05:39:45.928Z,684.00
2022-09-23T05:40:46.111Z,720.00
2022-09-23T05:41:46.189Z,756.00
2022-09-23T05:42:46.321Z,788.00
2022-09-23T05:43:46.449Z,828.00
2022-09-23T05:44:46.589Z,868.00
2022-09-23T05:45:46.756Z,908.00
2022-09-23T05:46:46.899Z,952.00
2022-09-23T05:47:46.989Z,996.00
2022-09-23T05:48:47.136Z,1040.00
2022-09-23T05:49:59.738Z,1084.00
2022-09-23T05:50:48.450Z,1128.00
2022-09-23T05:51:47.580Z,1176.00
2022-09-23T05:52:47.704Z,1228.00
2022-09-23T05:53:47.834Z,1276.00
2022-09-23T05:54:47.965Z,1324.00
2022-09-23T05:55:48.166Z,1372.00
2022-09-23T05:56:48.309Z,1416.00
2022-09-23T05:57:48.457Z,1460.00
2022-09-23T05:58:49.346Z,1492.00
2022-09-23T05:59:48.724Z,1524.00
2022-09-23T06:00:48.852Z,1552.00
2022-09-23T06:01:51.069Z,1584.00
2022-09-23T06:02:49.175Z,1620.00
2022-09-23T06:03:49.280Z,1660.00
2022-09-23T06:04:49.409Z,1688.00
2022-09-23T06:05:49.567Z,1704.00
2022-09-23T06:06:49.717Z,1720.00
2022-09-23T06:07:49.874Z,1740.00
2022-09-23T06:08:50.044Z,1764.00
2022-09-23T06:09:50.181Z,1788.00
2022-09-23T06:10:54.320Z,1812.00
2022-09-23T06:11:50.438Z,1844.00
2022-09-23T06:12:50.576Z,1880.00
2022-09-23T06:13:50.683Z,1920.00
2022-09-23T06:14:50.803Z,1968.00
2022-09-23T06:15:50.979Z,2024.00
2022-09-23T06:16:51.135Z,2088.00
2022-09-23T06:17:51.284Z,2152.00
2022-09-23T06:18:51.415Z,2228.00
2022-09-23T06:19:51.550Z,2300.00
2022-09-23T06:20:51.715Z,2384.00
2022-09-23T06:21:51.898Z,2468.00
2022-09-23T06:22:54.718Z,2552.00
2022-09-23T06:23:55.241Z,2644.00
2022-09-23T06:24:52.312Z,2732.00
2022-09-23T06:25:52.453Z,2824.00
2022-09-23T06:26:52.613Z,2928.00
2022-09-23T06:27:52.743Z,3032.00
2022-09-23T06:28:52.886Z,3132.00
2022-09-23T06:29:53.038Z,3224.00
2022-09-23T06:30:53.196Z,3320.00
2022-09-23T06:31:53.370Z,3432.00
2022-09-23T06:32:53.464Z,3528.00
2022-09-23T06:34:03.931Z,3632.00
2022-09-23T06:34:54.783Z,3728.00
2022-09-23T06:35:59.390Z,3824.00
2022-09-23T06:36:55.021Z,3904.00
2022-09-23T06:37:54.161Z,3972.00
2022-09-23T06:38:54.274Z,4032.00
2022-09-23T06:39:55.808Z,4104.00
2022-09-23T06:40:54.611Z,4172.00
2022-09-23T06:41:54.631Z,4244.00
2022-09-23T06:42:54.782Z,4320.00
2022-09-23T06:43:54.930Z,4392.00
2022-09-23T06:44:55.048Z,4460.00
2022-09-23T06:45:55.178Z,4512.00
2022-09-23T06:46:55.354Z,4572.00
2022-09-23T06:47:55.471Z,4628.00
2022-09-23T06:48:55.609Z,4680.00
2022-09-23T06:49:55.770Z,4748.00
2022-09-23T06:50:55.912Z,4800.00
2022-09-23T06:51:56.054Z,4856.00
2022-09-23T06:52:56.378Z,4912.00
2022-09-23T06:53:56.322Z,4968.00
2022-09-23T06:54:56.439Z,5024.00
2022-09-23T06:55:56.559Z,5068.00
2022-09-23T06:56:56.839Z,5128.00
2022-09-23T06:57:56.775Z,5176.00
2022-09-23T06:58:56.936Z,5232.00
2022-09-23T06:59:57.020Z,5280.00
2022-09-23T07:00:57.167Z,5348.00
2022-09-23T07:01:57.402Z,5412.00
2022-09-23T07:02:58.181Z,5448.00
2022-09-23T07:03:57.554Z,5476.00
2022-09-23T07:04:57.643Z,5508.00
2022-09-23T07:05:57.740Z,5532.00
2022-09-23T07:06:57.888Z,5572.00
2022-09-23T07:07:58.001Z,5604.00
2022-09-23T07:08:58.166Z,5640.00
2022-09-23T07:09:58.239Z,5656.00
2022-09-23T07:10:58.397Z,5668.00
2022-09-23T07:11:58.524Z,5656.00
2022-09-23T07:12:58.636Z,5668.00
2022-09-23T07:13:58.778Z,5672.00
2022-09-23T07:14:58.861Z,5656.00
2022-09-23T07:15:59.073Z,5644.00
2022-09-23T07:16:59.115Z,5616.00
2022-09-23T07:17:59.228Z,5600.00
2022-09-23T07:18:59.403Z,5592.00
2022-09-23T07:19:59.478Z,5596.00
2022-09-23T07:20:59.696Z,5588.00
2022-09-23T07:21:59.757Z,5616.00
2022-09-23T07:22:59.870Z,5628.00
2022-09-23T07:24:00.073Z,5660.00
2022-09-23T07:25:00.136Z,5704.00
2022-09-23T07:26:00.277Z,5772.00
2022-09-23T07:27:00.370Z,5836.00
2022-09-23T07:28:00.529Z,5904.00
2022-09-23T07:29:00.623Z,5980.00
2022-09-23T07:30:00.717Z,6064.00
2022-09-23T07:31:01.257Z,6144.00
2022-09-23T07:32:12.279Z,6232.00
2022-09-23T07:33:04.868Z,6304.00
2022-09-23T07:34:02.333Z,6356.00
2022-09-23T07:35:01.386Z,6404.00
2022-09-23T07:36:01.559Z,6444.00
2022-09-23T07:37:01.646Z,6488.00
2022-09-23T07:38:01.790Z,6556.00
2022-09-23T07:39:01.927Z,6624.00
2022-09-23T07:40:02.059Z,6676.00
2022-09-23T07:41:02.174Z,6728.00
2022-09-23T07:42:02.306Z,6792.00
2022-09-23T07:43:02.391Z,6840.00
2022-09-23T07:44:02.543Z,6896.00
2022-09-23T07:45:02.646Z,6952.00
2022-09-23T07:46:02.851Z,7020.00
2022-09-23T07:47:02.914Z,7084.00
2022-09-23T07:48:04.474Z,7100.00
2022-09-23T07:49:03.161Z,7136.00
2022-09-23T07:50:03.288Z,7176.00
2022-09-23T07:51:03.387Z,7200.00
2022-09-23T07:52:03.502Z,7224.00
2022-09-23T07:53:03.617Z,7260.00
2022-09-23T07:54:03.736Z,7300.00
2022-09-23T07:55:03.837Z,7344.00
2022-09-23T07:56:03.988Z,7372.00
2022-09-23T07:57:04.297Z,7428.00
2022-09-23T07:58:04.276Z,7452.00
2022-09-23T07:59:04.386Z,7540.00
2022-09-23T08:00:04.523Z,7616.00
2022-09-23T08:01:04.695Z,7684.00
2022-09-23T08:02:04.858Z,7728.00
2022-09-23T08:03:04.999Z,7788.00
2022-09-23T08:04:05.024Z,7840.00
2022-09-23T08:05:05.166Z,7900.00
2022-09-23T08:06:05.320Z,7968.00
2022-09-23T08:07:05.435Z,8016.00
2022-09-23T08:08:05.544Z,8056.00
2022-09-23T08:09:05.677Z,8104.00
2022-09-23T08:10:05.777Z,8140.00
2022-09-23T08:11:05.884Z,8164.00
2022-09-23T08:12:06.034Z,8188.00
2022-09-23T08:13:06.153Z,8196.00
2022-09-23T08:14:06.382Z,8180.00
2022-09-23T08:15:06.377Z,8164.00
2022-09-23T08:16:06.577Z,8148.00
2022-09-23T08:17:06.674Z,8144.00
2022-09-23T08:18:06.863Z,8152.00
2022-09-23T08:19:06.929Z,8160.00
2022-09-23T08:20:07.076Z,8160.00
2022-09-23T08:21:07.176Z,8156.00
2022-09-23T08:22:07.316Z,8140.00
2022-09-23T08:23:07.476Z,8112.00
2022-09-23T08:24:07.603Z,8060.00
2022-09-23T08:25:09.489Z,8004.00
2022-09-23T08:26:15.710Z,7932.00
2022-09-23T08:27:08.955Z,7840.00
2022-09-23T08:28:08.127Z,7764.00
2022-09-23T08:29:08.202Z,7676.00
2022-09-23T08:30:08.386Z,7588.00
2022-09-23T08:31:08.515Z,7532.00
2022-09-23T08:32:08.589Z,7480.00
2022-09-23T08:33:08.703Z,7432.00
2022-09-23T08:34:08.944Z,7388.00
2022-09-23T08:35:08.944Z,7356.00
2022-09-23T08:36:09.084Z,7340.00
2022-09-23T08:37:09.226Z,7340.00
2022-09-23T08:38:09.370Z,7344.00
2022-09-23T08:39:09.516Z,7364.00
2022-09-23T08:40:09.734Z,7404.00
2022-09-23T08:41:09.754Z,7456.00
2022-09-23T08:42:09.903Z,7532.00
2022-09-23T08:43:10.011Z,7608.00
2022-09-23T08:44:10.176Z,7696.00
2022-09-23T08:45:10.275Z,7792.00
2022-09-23T08:46:10.421Z,7888.00
2022-09-23T08:47:10.505Z,7996.00
2022-09-23T08:48:12.994Z,8116.00
2022-09-23T08:49:10.756Z,8248.00
2022-09-23T08:50:11.012Z,8396.00
2022-09-23T08:51:11.004Z,8548.00
2022-09-23T08:52:11.164Z,8700.00
2022-09-23T08:53:11.266Z,8840.00
2022-09-23T08:54:11.425Z,8980.00
2022-09-23T08:55:11.551Z,9096.00
2022-09-23T08:56:11.684Z,9232.00
2022-09-23T08:57:11.766Z,9384.00
2022-09-23T08:58:25.027Z,9560.00
2022-09-23T08:59:13.025Z,9756.00
2022-09-23T09:00:12.172Z,9924.00
2022-09-23T09:01:12.298Z,10136.00
2022-09-23T09:02:12.537Z,10376.00
2022-09-23T09:03:12.545Z,10540.00
2022-09-23T09:04:12.861Z,10784.00
2022-09-23T09:05:12.809Z,10852.00
2022-09-23T09:06:12.907Z,11060.00
2022-09-23T09:07:35.203Z,11124.00
2022-09-23T09:08:14.153Z,11264.00
2022-09-23T09:09:13.255Z,11340.00
2022-09-23T09:10:13.408Z,11316.00
2022-09-23T09:11:13.878Z,11224.00
2022-09-23T09:12:13.634Z,11396.00
2022-09-23T09:13:13.775Z,11592.00
2022-09-23T09:14:13.956Z,11756.00
2022-09-23T09:15:14.046Z,11792.00
2022-09-23T09:16:14.233Z,11892.00
2022-09-23T09:17:14.329Z,12028.00
2022-09-23T09:18:14.487Z,12204.00
2022-09-23T09:19:14.616Z,12228.00
2022-09-23T09:20:14.707Z,12516.00
2022-09-23T09:21:14.821Z,12668.00
2022-09-23T09:22:14.976Z,12804.00
2022-09-23T09:23:15.087Z,13064.00
2022-09-23T09:24:15.249Z,13336.00
2022-09-23T09:25:15.345Z,13432.00
2022-09-23T09:26:15.525Z,13576.00
2022-09-23T09:27:15.604Z,13696.00
2022-09-23T09:28:15.759Z,13880.00
2022-09-23T09:29:34.221Z,13964.00
2022-09-23T09:30:17.037Z,14048.00
2022-09-23T09:31:16.212Z,14128.00
2022-09-23T09:32:16.286Z,14260.00
2022-09-23T09:33:16.368Z,14452.00
2022-09-23T09:34:16.529Z,14524.00
2022-09-23T09:35:16.644Z,14500.00
2022-09-23T09:36:16.776Z,14564.00
2022-09-23T09:37:16.869Z,14636.00
2022-09-23T09:38:17.017Z,14680.00
2022-09-23T09:39:17.116Z,14380.00
2022-09-23T09:40:17.592Z,14584.00
2022-09-23T09:41:17.407Z,14856.00
2022-09-23T09:42:17.519Z,14944.00
2022-09-23T09:43:17.664Z,15020.00
2022-09-23T09:44:17.819Z,14960.00
2022-09-23T09:45:19.806Z,14852.00
2022-09-23T09:46:18.133Z,15100.00
2022-09-23T09:47:18.157Z,15808.00
2022-09-23T09:48:18.258Z,15904.00
2022-09-23T09:49:18.406Z,16160.00
2022-09-23T09:50:18.619Z,15744.00
2022-09-23T09:51:18.701Z,15776.00
2022-09-23T09:52:18.845Z,16192.00
2022-09-23T09:53:18.905Z,16448.00
2022-09-23T09:54:19.014Z,15048.00
2022-09-23T09:55:19.144Z,14648.00
2022-09-23T09:56:19.233Z,14152.00
2022-09-23T09:57:19.340Z,14064.00
2022-09-23T09:58:19.490Z,14224.00
2022-09-23T09:59:19.599Z,14832.00
2022-09-23T10:00:19.760Z,16480.00
2022-09-23T10:01:19.921Z,16256.00
2022-09-23T10:02:19.997Z,15744.00
2022-09-23T10:03:20.163Z,16448.00
2022-09-23T10:04:20.278Z,16224.00
2022-09-23T10:05:20.373Z,16384.00
2022-09-23T10:06:20.510Z,15776.00
2022-09-23T10:07:20.631Z,15584.00
2022-09-23T10:08:20.773Z,14712.00
2022-09-23T10:09:20.835Z,13616.00
2022-09-23T10:10:32.421Z,13288.00
2022-09-23T10:11:22.125Z,13004.00
2022-09-23T10:12:21.260Z,12680.00
2022-09-23T10:13:21.367Z,12432.00
2022-09-23T10:14:21.528Z,11992.00
2022-09-23T10:15:21.617Z,11432.00
2022-09-23T10:16:21.824Z,11024.00
2022-09-23T10:17:21.866Z,10820.00
2022-09-23T10:18:22.025Z,10744.00
2022-09-23T10:19:22.177Z,10872.00
2022-09-23T10:20:22.295Z,10996.00
2022-09-23T10:21:27.583Z,11092.00
2022-09-23T10:22:23.540Z,11256.00
2022-09-23T10:23:22.648Z,11504.00
2022-09-23T10:24:22.751Z,11888.00
2022-09-23T10:25:22.856Z,12248.00
2022-09-23T10:26:23.007Z,12696.00
2022-09-23T10:27:23.129Z,13124.00
2022-09-23T10:28:23.243Z,13412.00
2022-09-23T10:29:23.359Z,13568.00
2022-09-23T10:30:23.510Z,13736.00
2022-09-23T10:31:23.618Z,13964.00
2022-09-23T10:32:23.738Z,14300.00
2022-09-23T10:33:23.841Z,14216.00
2022-09-23T10:34:23.980Z,14064.00
2022-09-23T10:35:24.097Z,14008.00
2022-09-23T10:36:24.211Z,13876.00
2022-09-23T10:37:24.343Z,14164.00
2022-09-23T10:38:24.441Z,14508.00
2022-09-23T10:39:24.561Z,14808.00
2022-09-23T10:40:24.705Z,14500.00
2022-09-23T10:41:24.804Z,14444.00
2022-09-23T10:42:24.924Z,14912.00
2022-09-23T10:43:25.023Z,15188.00
2022-09-23T10:44:25.133Z,15456.00
2022-09-23T10:45:25.305Z,15112.00
2022-09-23T10:46:25.466Z,14876.00
2022-09-23T10:47:25.520Z,14884.00
2022-09-23T10:48:25.651Z,14844.00
2022-09-23T10:49:25.735Z,15648.00
2022-09-23T10:50:25.908Z,16768.00
2022-09-23T10:51:26.376Z,16992.00
2022-09-23T10:52:26.116Z,17056.00
2022-09-23T10:53:26.229Z,16928.00
2022-09-23T10:54:26.390Z,17088.00
2022-09-23T10:55:26.607Z,16608.00
2022-09-23T10:56:26.620Z,16544.00
2022-09-23T10:57:26.732Z,16288.00
2022-09-23T10:58:26.881Z,16288.00
2022-09-23T10:59:27.033Z,16032.00
2022-09-23T11:00:27.195Z,16288.00
2022-09-23T11:01:27.360Z,16960.00
2022-09-23T11:02:27.401Z,17568.00
2022-09-23T11:03:27.503Z,17376.00
2022-09-23T11:04:27.698Z,18048.00
2022-09-23T11:05:27.755Z,18080.00
2022-09-23T11:06:27.923Z,18752.00
2022-09-23T11:07:28.020Z,19616.00
2022-09-23T11:08:28.138Z,20320.00
2022-09-23T11:09:28.247Z,21312.00
2022-09-23T11:10:45.389Z,21440.00
2022-09-23T11:11:29.539Z,22208.00
2022-09-23T11:12:28.708Z,23968.00
2022-09-23T11:13:28.789Z,25888.00
2022-09-23T11:14:28.967Z,26560.00
2022-09-23T11:15:29.076Z,28032.00
2022-09-23T11:16:29.258Z,29248.00
2022-09-23T11:17:29.289Z,31808.00
2022-09-23T11:18:29.461Z,30528.00
2022-09-23T11:19:30.099Z,30816.00
2022-09-23T11:20:29.672Z,34400.00
2022-09-23T11:21:29.798Z,37280.00
2022-09-23T11:22:29.914Z,39392.00
2022-09-23T11:23:30.025Z,41600.00
2022-09-23T11:24:30.154Z,44320.00
2022-09-23T11:25:30.295Z,48480.00
2022-09-23T11:26:33.105Z,53664.00
2022-09-23T11:27:30.506Z,54592.00
2022-09-23T11:28:30.626Z,56096.00
2022-09-23T11:29:30.736Z,53504.00
2022-09-23T11:30:30.942Z,44256.00
2022-09-23T11:31:30.981Z,48480.00
2022-09-23T11:32:31.067Z,52224.00
2022-09-23T11:33:31.196Z,53792.00
2022-09-23T11:34:31.278Z,48960.00
2022-09-23T11:35:31.427Z,46272.00
2022-09-23T11:36:31.588Z,39616.00
2022-09-23T11:37:31.689Z,45856.00
2022-09-23T11:38:31.817Z,48032.00
2022-09-23T11:39:31.929Z,43008.00
2022-09-23T11:40:32.148Z,35104.00
2022-09-23T11:41:32.202Z,35616.00
2022-09-23T11:42:32.287Z,34528.00
2022-09-23T11:43:32.455Z,30752.00
2022-09-23T11:44:32.530Z,24256.00
2022-09-23T11:45:32.752Z,21824.00
2022-09-23T11:46:32.792Z,18816.00
2022-09-23T11:47:36.480Z,18176.00
2022-09-23T11:48:34.062Z,17856.00
2022-09-23T11:49:33.203Z,16576.00
2022-09-23T11:50:33.309Z,16384.00
2022-09-23T11:51:33.473Z,16640.00
2022-09-23T11:52:33.562Z,17184.00
2022-09-23T11:53:33.736Z,17120.00
2022-09-23T11:54:33.824Z,17152.00
2022-09-23T11:55:33.974Z,17344.00
2022-09-23T11:56:36.283Z,17536.00
2022-09-23T11:57:45.549Z,17472.00
2022-09-23T11:58:35.391Z,17120.00
2022-09-23T11:59:40.276Z,16768.00
2022-09-23T12:00:35.580Z,15840.00
2022-09-23T12:01:37.976Z,14612.00
2022-09-23T12:02:34.907Z,14080.00
2022-09-23T12:03:43.847Z,14116.00
2022-09-23T12:04:37.428Z,13696.00
2022-09-23T12:05:35.332Z,13328.00
2022-09-23T12:06:35.265Z,12916.00
2022-09-23T12:07:35.387Z,12392.00
2022-09-23T12:08:35.481Z,11952.00
2022-09-23T12:09:57.405Z,11488.00
2022-09-23T12:10:36.757Z,11080.00
2022-09-23T12:11:35.907Z,10824.00
2022-09-23T12:12:36.029Z,10680.00
2022-09-23T12:13:36.166Z,10532.00
2022-09-23T12:14:36.288Z,10396.00
2022-09-23T12:15:36.389Z,10344.00
2022-09-23T12:16:36.605Z,10380.00
2022-09-23T12:17:36.617Z,10580.00
2022-09-23T12:18:36.724Z,10572.00
2022-09-23T12:19:36.889Z,10764.00
2022-09-23T12:20:36.969Z,10984.00
2022-09-23T12:21:50.219Z,11336.00
2022-09-23T12:22:38.244Z,11800.00
2022-09-23T12:23:37.390Z,12136.00
2022-09-23T12:24:37.492Z,12664.00
2022-09-23T12:25:37.609Z,13300.00
2022-09-23T12:26:37.711Z,13600.00
2022-09-23T12:27:37.871Z,15072.00
2022-09-23T12:28:37.992Z,15492.00
2022-09-23T12:29:38.120Z,15936.00